Longs, SC (29568)

2:10 PM EDT on July 04, 2015 (GMT -0400)
Long Bay Club | | Change Station
CLOSE
Current Station
Personal Weather Station
Location: Longs, SC
Elevation: 37 ft
Nearby Weather Stations

Elev 37 ft 33.95 °N, 78.74 °W | Updated 20 seconds ago

Partly Cloudy
Partly Cloudy
90.3 °F
Feels Like 97 °F
N
5.0
Wind Variable Wind from WSW
Gusts 7.0 mph

Today
High -- | Low -- °F
--% Chance of Precip.
Yesterday
High -- | Low -- °F
Precip. -- in
6:08 AM 8:29 PM
Waning Gibbous, 91% visible
Pressure 30.05 in
Visibility 10.0 miles
Clouds Mostly Cloudy 5500 ft
Heat Index 97 °F
Dew Point 71 °F
Humidity 53%
Rainfall 0.00 in
Snow Depth Not available.
UV 7 out of 12
Pollen 4.00 out of 12
Air Quality Not available.
Flu Activity Not available.
METAR KCRE 041753Z 22014G21KT 10SM BKN055 32/23 A3005 RMK AO1 SLP176 T03170228 10322 20250 50000

More Conditions Fewer Conditions

Pressure 30.05 in
Visibility 10.0 miles
Clouds Mostly Cloudy 5500 ft
Heat Index 97 °F
Dew Point 71 °F
Humidity 53%
Rainfall 0.00 in
Snow Depth Not available.
UV 7 out of 12
Pollen 4.00 out of 12
Air Quality Not available.
Flu Activity Not available.
METAR KCRE 041753Z 22014G21KT 10SM BKN055 32/23 A3005 RMK AO1 SLP176 T03170228 10322 20250 50000

More Conditions Fewer Conditions

10-Day Weather Forecast

×

Almanac

Astronomy

Jul. 04, 2015 Rise Set
Actual Time
Civil Twilight
Nautical Twilight
Astronomical Twilight
Moon
Length of Visible Light
Length of Day
Tomorrow will be .
, % of the Moon is Illuminated

Today's Extremes

State Highs State Lows

Community

WunderPhotos

Upload Photos

1,835,016 photos uploaded!

WunderBlogs® & News

Nearby

Air Quality

  Air Quality AQ Index Pollutant
Not available.

Snow Depth

Station Depth Elevation

Earthquake Activity

City Distance Mag. Time & Date
Minimum magnitude displayed is 2.5.

Coastal Water Temperatures

Place Temperature

Stations

Nearby Weather Stations

Station Location Temp. Windchill Dew Point Humidity Wind Precip. Elev Updated Type